sensor_id;sensor_type;location;lat;lon;timestamp;P1;durP1;ratioP1;P2;durP2;ratioP2
7747;SDS011;3918;42.564;23.164;2023-11-19T05:03:15;6.00;;;5.60;;
7747;SDS011;3918;42.564;23.164;2023-11-19T05:05:44;6.23;;;5.60;;
7747;SDS011;3918;42.564;23.164;2023-11-19T05:08:11;5.10;;;4.70;;
7747;SDS011;3918;42.564;23.164;2023-11-19T05:10:37;5.60;;;5.03;;
7747;SDS011;3918;42.564;23.164;2023-11-19T05:13:04;5.90;;;5.30;;
7747;SDS011;3918;42.564;23.164;2023-11-19T05:15:31;6.13;;;5.63;;
7747;SDS011;3918;42.564;23.164;2023-11-19T05:17:58;6.13;;;5.63;;
7747;SDS011;3918;42.564;23.164;2023-11-19T05:20:26;12.77;;;6.77;;
7747;SDS011;3918;42.564;23.164;2023-11-19T05:22:53;7.23;;;6.60;;
7747;SDS011;3918;42.564;23.164;2023-11-19T05:25:21;6.40;;;5.77;;
7747;SDS011;3918;42.564;23.164;2023-11-19T05:27:48;5.87;;;5.50;;
7747;SDS011;3918;42.564;23.164;2023-11-19T05:30:15;5.57;;;5.13;;
7747;SDS011;3918;42.564;23.164;2023-11-19T05:32:42;13.80;;;5.53;;
7747;SDS011;3918;42.564;23.164;2023-11-19T05:35:08;6.17;;;5.77;;
7747;SDS011;3918;42.564;23.164;2023-11-19T05:37:36;7.53;;;5.50;;
7747;SDS011;3918;42.564;23.164;2023-11-19T05:40:04;5.23;;;4.87;;
7747;SDS011;3918;42.564;23.164;2023-11-19T05:42:39;5.63;;;5.20;;
7747;SDS011;3918;42.564;23.164;2023-11-19T05:45:06;5.90;;;4.37;;
7747;SDS011;3918;42.564;23.164;2023-11-19T05:47:34;6.67;;;5.20;;
7747;SDS011;3918;42.564;23.164;2023-11-19T05:50:01;6.87;;;4.70;;
7747;SDS011;3918;42.564;23.164;2023-11-19T05:52:29;8.63;;;5.70;;
7747;SDS011;3918;42.564;23.164;2023-11-19T05:55:03;6.07;;;5.53;;
7747;SDS011;3918;42.564;23.164;2023-11-19T05:57:34;6.00;;;5.50;;
7747;SDS011;3918;42.564;23.164;2023-11-19T06:00:01;5.43;;;5.13;;
7747;SDS011;3918;42.564;23.164;2023-11-19T06:02:29;5.47;;;5.10;;
7747;SDS011;3918;42.564;23.164;2023-11-19T06:04:56;6.63;;;6.13;;
7747;SDS011;3918;42.564;23.164;2023-11-19T06:07:23;7.03;;;6.43;;
7747;SDS011;3918;42.564;23.164;2023-11-19T06:09:50;6.40;;;5.90;;
7747;SDS011;3918;42.564;23.164;2023-11-19T06:12:18;6.43;;;5.93;;
7747;SDS011;3918;42.564;23.164;2023-11-19T06:14:45;6.13;;;5.63;;
7747;SDS011;3918;42.564;23.164;2023-11-19T06:17:12;5.70;;;5.40;;
7747;SDS011;3918;42.564;23.164;2023-11-19T06:19:39;6.70;;;6.20;;
7747;SDS011;3918;42.564;23.164;2023-11-19T06:22:05;6.90;;;6.40;;
7747;SDS011;3918;42.564;23.164;2023-11-19T06:24:32;6.03;;;5.53;;
7747;SDS011;3918;42.564;23.164;2023-11-19T06:26:59;5.03;;;4.80;;
7747;SDS011;3918;42.564;23.164;2023-11-19T06:29:27;8.90;;;6.13;;
7747;SDS011;3918;42.564;23.164;2023-11-19T06:31:54;5.77;;;5.37;;
7747;SDS011;3918;42.564;23.164;2023-11-19T06:34:21;5.83;;;5.33;;
7747;SDS011;3918;42.564;23.164;2023-11-19T06:36:48;6.20;;;5.70;;
7747;SDS011;3918;42.564;23.164;2023-11-19T06:39:14;6.10;;;5.70;;
7747;SDS011;3918;42.564;23.164;2023-11-19T06:41:44;6.30;;;5.90;;
7747;SDS011;3918;42.564;23.164;2023-11-19T06:44:11;6.80;;;6.33;;
7747;SDS011;3918;42.564;23.164;2023-11-19T06:46:40;6.70;;;6.20;;
7747;SDS011;3918;42.564;23.164;2023-11-19T06:49:07;6.97;;;6.57;;
7747;SDS011;3918;42.564;23.164;2023-11-19T06:51:34;7.17;;;6.67;;
7747;SDS011;3918;42.564;23.164;2023-11-19T06:54:00;6.80;;;6.30;;
7747;SDS011;3918;42.564;23.164;2023-11-19T06:56:27;7.03;;;6.40;;
7747;SDS011;3918;42.564;23.164;2023-11-19T06:58:54;6.03;;;5.70;;
7747;SDS011;3918;42.564;23.164;2023-11-19T07:01:21;6.73;;;6.23;;
7747;SDS011;3918;42.564;23.164;2023-11-19T07:03:49;7.17;;;6.57;;
7747;SDS011;3918;42.564;23.164;2023-11-19T07:06:16;6.00;;;5.60;;
7747;SDS011;3918;42.564;23.164;2023-11-19T07:08:43;5.73;;;5.23;;
7747;SDS011;3918;42.564;23.164;2023-11-19T07:11:11;6.87;;;6.37;;
7747;SDS011;3918;42.564;23.164;2023-11-19T07:13:39;6.30;;;5.80;;
7747;SDS011;3918;42.564;23.164;2023-11-19T07:16:07;6.27;;;5.73;;
7747;SDS011;3918;42.564;23.164;2023-11-19T07:18:35;6.20;;;5.80;;
7747;SDS011;3918;42.564;23.164;2023-11-19T07:21:03;6.70;;;6.00;;
7747;SDS011;3918;42.564;23.164;2023-11-19T07:23:30;5.87;;;5.47;;
7747;SDS011;3918;42.564;23.164;2023-11-19T07:25:58;5.87;;;5.37;;
7747;SDS011;3918;42.564;23.164;2023-11-19T07:28:24;6.50;;;5.90;;
7747;SDS011;3918;42.564;23.164;2023-11-19T07:30:53;6.23;;;5.73;;
7747;SDS011;3918;42.564;23.164;2023-11-19T07:33:21;6.83;;;6.33;;
7747;SDS011;3918;42.564;23.164;2023-11-19T07:35:48;5.40;;;5.00;;
7747;SDS011;3918;42.564;23.164;2023-11-19T07:38:17;6.27;;;5.67;;
7747;SDS011;3918;42.564;23.164;2023-11-19T07:40:44;6.80;;;6.30;;
7747;SDS011;3918;42.564;23.164;2023-11-19T07:43:12;8.13;;;7.53;;
7747;SDS011;3918;42.564;23.164;2023-11-19T07:45:39;7.20;;;6.70;;
7747;SDS011;3918;42.564;23.164;2023-11-19T07:48:10;6.77;;;6.23;;
7747;SDS011;3918;42.564;23.164;2023-11-19T07:50:38;6.10;;;5.60;;
7747;SDS011;3918;42.564;23.164;2023-11-19T07:53:05;7.90;;;6.00;;
7747;SDS011;3918;42.564;23.164;2023-11-19T07:55:34;5.53;;;5.13;;
7747;SDS011;3918;42.564;23.164;2023-11-19T07:58:00;5.83;;;5.43;;
7747;SDS011;3918;42.564;23.164;2023-11-19T08:00:27;7.07;;;6.47;;
7747;SDS011;3918;42.564;23.164;2023-11-19T08:02:54;5.83;;;5.43;;
7747;SDS011;3918;42.564;23.164;2023-11-19T08:05:20;6.63;;;6.10;;
7747;SDS011;3918;42.564;23.164;2023-11-19T08:07:49;6.43;;;5.93;;
7747;SDS011;3918;42.564;23.164;2023-11-19T08:10:17;6.97;;;6.37;;
7747;SDS011;3918;42.564;23.164;2023-11-19T08:12:45;7.00;;;6.30;;
7747;SDS011;3918;42.564;23.164;2023-11-19T08:15:12;7.03;;;6.43;;
7747;SDS011;3918;42.564;23.164;2023-11-19T08:17:39;5.90;;;5.47;;
7747;SDS011;3918;42.564;23.164;2023-11-19T08:20:06;5.93;;;5.47;;
7747;SDS011;3918;42.564;23.164;2023-11-19T08:22:35;6.17;;;5.57;;
7747;SDS011;3918;42.564;23.164;2023-11-19T08:25:02;6.60;;;6.10;;
7747;SDS011;3918;42.564;23.164;2023-11-19T08:27:30;7.27;;;6.57;;
7747;SDS011;3918;42.564;23.164;2023-11-19T08:29:58;5.77;;;5.27;;
7747;SDS011;3918;42.564;23.164;2023-11-19T08:32:25;6.83;;;6.23;;
7747;SDS011;3918;42.564;23.164;2023-11-19T08:34:53;6.43;;;5.80;;
7747;SDS011;3918;42.564;23.164;2023-11-19T08:37:21;5.57;;;5.17;;
7747;SDS011;3918;42.564;23.164;2023-11-19T08:39:47;5.60;;;5.10;;
7747;SDS011;3918;42.564;23.164;2023-11-19T08:42:15;5.37;;;5.03;;
7747;SDS011;3918;42.564;23.164;2023-11-19T08:44:42;5.30;;;4.93;;
7747;SDS011;3918;42.564;23.164;2023-11-19T08:47:10;6.13;;;5.63;;
7747;SDS011;3918;42.564;23.164;2023-11-19T08:49:38;5.77;;;5.33;;
7747;SDS011;3918;42.564;23.164;2023-11-19T08:52:05;6.00;;;5.50;;
7747;SDS011;3918;42.564;23.164;2023-11-19T08:54:32;6.00;;;5.50;;
7747;SDS011;3918;42.564;23.164;2023-11-19T08:56:59;5.73;;;5.13;;
7747;SDS011;3918;42.564;23.164;2023-11-19T08:59:28;5.90;;;5.47;;
7747;SDS011;3918;42.564;23.164;2023-11-19T09:01:54;5.63;;;5.23;;
7747;SDS011;3918;42.564;23.164;2023-11-19T09:04:23;5.93;;;4.93;;
7747;SDS011;3918;42.564;23.164;2023-11-19T09:06:50;4.60;;;4.20;;
7747;SDS011;3918;42.564;23.164;2023-11-19T09:09:17;5.27;;;4.80;;
7747;SDS011;3918;42.564;23.164;2023-11-19T09:11:43;4.87;;;4.37;;
7747;SDS011;3918;42.564;23.164;2023-11-19T09:14:10;4.80;;;4.43;;
7747;SDS011;3918;42.564;23.164;2023-11-19T09:16:37;5.23;;;4.83;;
7747;SDS011;3918;42.564;23.164;2023-11-19T09:19:04;5.00;;;4.60;;
7747;SDS011;3918;42.564;23.164;2023-11-19T09:21:32;5.10;;;4.70;;
7747;SDS011;3918;42.564;23.164;2023-11-19T09:24:02;5.37;;;4.87;;
7747;SDS011;3918;42.564;23.164;2023-11-19T09:26:30;3.77;;;3.57;;
7747;SDS011;3918;42.564;23.164;2023-11-19T09:28:57;4.53;;;4.23;;
7747;SDS011;3918;42.564;23.164;2023-11-19T09:31:23;5.33;;;4.93;;
7747;SDS011;3918;42.564;23.164;2023-11-19T09:33:50;5.20;;;4.80;;
7747;SDS011;3918;42.564;23.164;2023-11-19T09:36:17;4.73;;;4.33;;
7747;SDS011;3918;42.564;23.164;2023-11-19T09:38:45;5.20;;;4.70;;
7747;SDS011;3918;42.564;23.164;2023-11-19T09:41:12;4.50;;;4.10;;
7747;SDS011;3918;42.564;23.164;2023-11-19T09:43:39;4.83;;;4.43;;
7747;SDS011;3918;42.564;23.164;2023-11-19T09:46:09;3.90;;;3.60;;
7747;SDS011;3918;42.564;23.164;2023-11-19T09:48:37;3.53;;;3.33;;
7747;SDS011;3918;42.564;23.164;2023-11-19T09:51:06;7.20;;;4.07;;
7747;SDS011;3918;42.564;23.164;2023-11-19T09:53:33;5.10;;;4.03;;
7747;SDS011;3918;42.564;23.164;2023-11-19T09:56:03;4.20;;;3.90;;
7747;SDS011;3918;42.564;23.164;2023-11-19T09:58:31;4.28;;;3.88;;
7747;SDS011;3918;42.564;23.164;2023-11-19T10:00:58;3.87;;;3.57;;
7747;SDS011;3918;42.564;23.164;2023-11-19T10:03:25;3.60;;;3.30;;
7747;SDS011;3918;42.564;23.164;2023-11-19T10:05:53;2.80;;;2.60;;
7747;SDS011;3918;42.564;23.164;2023-11-19T10:08:21;3.30;;;3.00;;
7747;SDS011;3918;42.564;23.164;2023-11-19T10:10:48;4.67;;;3.10;;
7747;SDS011;3918;42.564;23.164;2023-11-19T10:13:16;3.93;;;3.50;;
7747;SDS011;3918;42.564;23.164;2023-11-19T10:15:43;3.83;;;3.23;;
7747;SDS011;3918;42.564;23.164;2023-11-19T10:18:10;2.47;;;2.27;;
7747;SDS011;3918;42.564;23.164;2023-11-19T10:20:37;2.40;;;2.27;;
7747;SDS011;3918;42.564;23.164;2023-11-19T10:23:07;2.53;;;2.43;;
7747;SDS011;3918;42.564;23.164;2023-11-19T10:25:34;3.13;;;2.83;;
7747;SDS011;3918;42.564;23.164;2023-11-19T10:28:01;3.43;;;3.20;;
7747;SDS011;3918;42.564;23.164;2023-11-19T10:30:30;3.80;;;3.47;;
7747;SDS011;3918;42.564;23.164;2023-11-19T10:33:05;2.97;;;2.77;;
7747;SDS011;3918;42.564;23.164;2023-11-19T10:35:34;3.73;;;3.27;;
7747;SDS011;3918;42.564;23.164;2023-11-19T10:38:01;3.53;;;2.80;;
7747;SDS011;3918;42.564;23.164;2023-11-19T10:40:40;3.23;;;2.93;;
7747;SDS011;3918;42.564;23.164;2023-11-19T10:43:07;3.20;;;3.00;;
7747;SDS011;3918;42.564;23.164;2023-11-19T10:45:36;2.90;;;2.70;;
7747;SDS011;3918;42.564;23.164;2023-11-19T10:48:04;3.30;;;3.00;;
7747;SDS011;3918;42.564;23.164;2023-11-19T10:50:32;2.67;;;2.50;;
7747;SDS011;3918;42.564;23.164;2023-11-19T10:52:59;2.50;;;2.30;;
7747;SDS011;3918;42.564;23.164;2023-11-19T10:55:27;2.87;;;2.50;;
7747;SDS011;3918;42.564;23.164;2023-11-19T10:57:58;3.03;;;2.83;;
7747;SDS011;3918;42.564;23.164;2023-11-19T11:00:26;3.10;;;2.80;;
7747;SDS011;3918;42.564;23.164;2023-11-19T11:02:57;3.33;;;3.07;;
7747;SDS011;3918;42.564;23.164;2023-11-19T11:05:29;3.05;;;2.75;;
7747;SDS011;3918;42.564;23.164;2023-11-19T11:08:00;2.60;;;2.40;;
7747;SDS011;3918;42.564;23.164;2023-11-19T11:10:28;2.88;;;2.63;;
7747;SDS011;3918;42.564;23.164;2023-11-19T11:13:02;3.00;;;2.80;;
7747;SDS011;3918;42.564;23.164;2023-11-19T11:15:30;3.58;;;3.03;;
7747;SDS011;3918;42.564;23.164;2023-11-19T11:18:01;3.20;;;2.87;;
7747;SDS011;3918;42.564;23.164;2023-11-19T11:20:28;3.10;;;2.90;;
7747;SDS011;3918;42.564;23.164;2023-11-19T11:23:04;3.00;;;2.80;;
7747;SDS011;3918;42.564;23.164;2023-11-19T11:25:45;2.50;;;2.40;;
7747;SDS011;3918;42.564;23.164;2023-11-19T11:28:23;2.67;;;2.47;;
7747;SDS011;3918;42.564;23.164;2023-11-19T11:31:02;3.17;;;2.97;;
7747;SDS011;3918;42.564;23.164;2023-11-19T11:33:44;2.80;;;2.60;;
7747;SDS011;3918;42.564;23.164;2023-11-19T11:36:26;2.90;;;2.70;;
7747;SDS011;3918;42.564;23.164;2023-11-19T11:38:57;2.60;;;2.50;;
7747;SDS011;3918;42.564;23.164;2023-11-19T11:41:26;2.70;;;2.50;;
7747;SDS011;3918;42.564;23.164;2023-11-19T11:43:53;2.40;;;2.30;;
7747;SDS011;3918;42.564;23.164;2023-11-19T11:49:28;2.90;;;2.70;;
7747;SDS011;3918;42.564;23.164;2023-11-19T11:51:57;2.63;;;2.50;;
7747;SDS011;3918;42.564;23.164;2023-11-19T11:54:28;2.60;;;2.40;;
7747;SDS011;3918;42.564;23.164;2023-11-19T11:57:02;2.73;;;2.53;;
7747;SDS011;3918;42.564;23.164;2023-11-19T11:59:36;6.90;;;2.90;;
7747;SDS011;3918;42.564;23.164;2023-11-19T12:02:13;2.83;;;2.63;;
7747;SDS011;3918;42.564;23.164;2023-11-19T12:04:43;2.60;;;2.47;;
7747;SDS011;3918;42.564;23.164;2023-11-19T12:07:14;2.80;;;2.60;;
7747;SDS011;3918;42.564;23.164;2023-11-19T12:09:46;2.27;;;2.17;;
7747;SDS011;3918;42.564;23.164;2023-11-19T12:12:18;2.47;;;2.37;;
7747;SDS011;3918;42.564;23.164;2023-11-19T12:14:59;2.73;;;2.53;;
7747;SDS011;3918;42.564;23.164;2023-11-19T12:20:17;3.30;;;2.57;;
7747;SDS011;3918;42.564;23.164;2023-11-19T12:22:46;2.50;;;2.30;;
7747;SDS011;3918;42.564;23.164;2023-11-19T12:25:14;3.47;;;3.17;;
7747;SDS011;3918;42.564;23.164;2023-11-19T12:27:43;4.87;;;2.37;;
7747;SDS011;3918;42.564;23.164;2023-11-19T12:30:11;2.53;;;2.33;;
7747;SDS011;3918;42.564;23.164;2023-11-19T12:32:39;2.40;;;2.20;;
7747;SDS011;3918;42.564;23.164;2023-11-19T12:35:07;5.43;;;3.03;;
7747;SDS011;3918;42.564;23.164;2023-11-19T12:37:41;2.60;;;2.40;;
7747;SDS011;3918;42.564;23.164;2023-11-19T12:40:14;3.60;;;2.33;;
7747;SDS011;3918;42.564;23.164;2023-11-19T12:42:42;3.90;;;2.40;;
7747;SDS011;3918;42.564;23.164;2023-11-19T12:45:13;4.50;;;2.37;;
7747;SDS011;3918;42.564;23.164;2023-11-19T12:47:48;3.50;;;2.23;;
7747;SDS011;3918;42.564;23.164;2023-11-19T12:50:17;3.53;;;2.30;;
7747;SDS011;3918;42.564;23.164;2023-11-19T12:52:56;5.33;;;2.30;;
7747;SDS011;3918;42.564;23.164;2023-11-19T12:55:26;4.77;;;2.03;;
7747;SDS011;3918;42.564;23.164;2023-11-19T12:57:57;3.17;;;2.38;;
7747;SDS011;3918;42.564;23.164;2023-11-19T13:00:26;6.45;;;2.50;;
7747;SDS011;3918;42.564;23.164;2023-11-19T13:02:57;4.30;;;2.45;;
7747;SDS011;3918;42.564;23.164;2023-11-19T13:05:26;2.88;;;2.42;;
7747;SDS011;3918;42.564;23.164;2023-11-19T13:08:05;2.97;;;2.25;;
7747;SDS011;3918;42.564;23.164;2023-11-19T13:10:49;3.55;;;1.95;;
7747;SDS011;3918;42.564;23.164;2023-11-19T13:13:17;3.92;;;2.30;;
7747;SDS011;3918;42.564;23.164;2023-11-19T13:15:44;5.22;;;2.10;;
7747;SDS011;3918;42.564;23.164;2023-11-19T13:18:11;3.75;;;2.60;;
7747;SDS011;3918;42.564;23.164;2023-11-19T13:20:39;4.15;;;2.90;;
7747;SDS011;3918;42.564;23.164;2023-11-19T13:23:07;3.20;;;2.13;;
7747;SDS011;3918;42.564;23.164;2023-11-19T13:25:35;2.05;;;1.85;;
7747;SDS011;3918;42.564;23.164;2023-11-19T13:28:02;1.77;;;1.63;;
7747;SDS011;3918;42.564;23.164;2023-11-19T13:30:31;2.40;;;2.10;;
7747;SDS011;3918;42.564;23.164;2023-11-19T13:32:57;3.15;;;2.10;;
7747;SDS011;3918;42.564;23.164;2023-11-19T13:35:26;2.13;;;1.98;;
7747;SDS011;3918;42.564;23.164;2023-11-19T13:37:53;2.13;;;1.92;;
7747;SDS011;3918;42.564;23.164;2023-11-19T13:40:21;2.53;;;2.30;;
7747;SDS011;3918;42.564;23.164;2023-11-19T13:42:49;3.03;;;1.90;;
7747;SDS011;3918;42.564;23.164;2023-11-19T13:45:16;2.22;;;2.03;;
7747;SDS011;3918;42.564;23.164;2023-11-19T13:47:44;3.40;;;2.00;;
7747;SDS011;3918;42.564;23.164;2023-11-19T13:50:12;2.55;;;2.05;;
7747;SDS011;3918;42.564;23.164;2023-11-19T13:52:44;10.35;;;2.20;;
7747;SDS011;3918;42.564;23.164;2023-11-19T13:55:13;4.05;;;2.10;;
7747;SDS011;3918;42.564;23.164;2023-11-19T13:57:41;2.42;;;1.70;;
7747;SDS011;3918;42.564;23.164;2023-11-19T14:00:09;1.90;;;1.80;;
7747;SDS011;3918;42.564;23.164;2023-11-19T14:02:50;2.47;;;2.10;;
7747;SDS011;3918;42.564;23.164;2023-11-19T14:05:17;2.28;;;2.03;;
7747;SDS011;3918;42.564;23.164;2023-11-19T14:07:44;2.00;;;1.90;;
7747;SDS011;3918;42.564;23.164;2023-11-19T14:10:13;4.05;;;2.15;;
7747;SDS011;3918;42.564;23.164;2023-11-19T14:12:50;2.15;;;1.95;;
7747;SDS011;3918;42.564;23.164;2023-11-19T14:15:16;2.28;;;2.08;;
7747;SDS011;3918;42.564;23.164;2023-11-19T14:17:45;4.88;;;2.55;;
7747;SDS011;3918;42.564;23.164;2023-11-19T14:20:12;3.05;;;2.30;;
7747;SDS011;3918;42.564;23.164;2023-11-19T14:22:40;4.13;;;2.22;;
7747;SDS011;3918;42.564;23.164;2023-11-19T14:25:08;2.88;;;2.40;;
7747;SDS011;3918;42.564;23.164;2023-11-19T14:27:36;3.13;;;2.38;;
7747;SDS011;3918;42.564;23.164;2023-11-19T14:30:06;3.92;;;2.22;;
7747;SDS011;3918;42.564;23.164;2023-11-19T14:32:35;4.30;;;2.38;;
7747;SDS011;3918;42.564;23.164;2023-11-19T14:35:02;6.30;;;2.20;;
7747;SDS011;3918;42.564;23.164;2023-11-19T14:37:29;5.15;;;2.83;;
7747;SDS011;3918;42.564;23.164;2023-11-19T14:39:57;2.87;;;2.40;;
7747;SDS011;3918;42.564;23.164;2023-11-19T14:42:24;3.60;;;2.30;;
7747;SDS011;3918;42.564;23.164;2023-11-19T14:44:50;4.27;;;2.60;;
7747;SDS011;3918;42.564;23.164;2023-11-19T14:47:22;3.43;;;2.20;;
7747;SDS011;3918;42.564;23.164;2023-11-19T14:49:49;5.43;;;2.70;;
7747;SDS011;3918;42.564;23.164;2023-11-19T14:52:16;4.88;;;2.55;;
7747;SDS011;3918;42.564;23.164;2023-11-19T14:54:43;5.07;;;2.50;;
7747;SDS011;3918;42.564;23.164;2023-11-19T14:57:11;6.32;;;2.28;;
7747;SDS011;3918;42.564;23.164;2023-11-19T14:59:38;2.50;;;2.17;;
7747;SDS011;3918;42.564;23.164;2023-11-19T15:02:05;4.20;;;2.35;;
7747;SDS011;3918;42.564;23.164;2023-11-19T15:04:33;2.90;;;2.28;;
7747;SDS011;3918;42.564;23.164;2023-11-19T15:07:00;3.20;;;2.35;;
7747;SDS011;3918;42.564;23.164;2023-11-19T15:09:28;2.65;;;2.45;;
7747;SDS011;3918;42.564;23.164;2023-11-19T15:11:54;3.87;;;2.80;;
7747;SDS011;3918;42.564;23.164;2023-11-19T15:14:23;3.10;;;2.80;;
7747;SDS011;3918;42.564;23.164;2023-11-19T15:16:50;5.33;;;2.90;;
7747;SDS011;3918;42.564;23.164;2023-11-19T15:19:17;5.87;;;2.60;;
7747;SDS011;3918;42.564;23.164;2023-11-19T15:21:46;4.40;;;3.05;;
7747;SDS011;3918;42.564;23.164;2023-11-19T15:24:15;3.67;;;3.20;;
7747;SDS011;3918;42.564;23.164;2023-11-19T15:26:42;7.13;;;2.20;;
7747;SDS011;3918;42.564;23.164;2023-11-19T15:29:09;2.47;;;2.27;;
7747;SDS011;3918;42.564;23.164;2023-11-19T15:31:37;4.22;;;2.55;;
7747;SDS011;3918;42.564;23.164;2023-11-19T15:34:03;11.53;;;5.30;;
7747;SDS011;3918;42.564;23.164;2023-11-19T15:36:32;15.48;;;5.10;;
7747;SDS011;3918;42.564;23.164;2023-11-19T15:39:02;11.47;;;5.40;;
7747;SDS011;3918;42.564;23.164;2023-11-19T15:41:29;4.27;;;3.87;;
7747;SDS011;3918;42.564;23.164;2023-11-19T15:43:56;15.53;;;8.07;;
7747;SDS011;3918;42.564;23.164;2023-11-19T15:46:23;37.70;;;14.95;;
7747;SDS011;3918;42.564;23.164;2023-11-19T15:48:50;11.23;;;5.60;;
7747;SDS011;3918;42.564;23.164;2023-11-19T15:51:17;22.50;;;10.57;;
7747;SDS011;3918;42.564;23.164;2023-11-19T15:53:46;35.17;;;14.15;;
7747;SDS011;3918;42.564;23.164;2023-11-19T15:56:14;17.97;;;7.77;;
7747;SDS011;3918;42.564;23.164;2023-11-19T15:58:41;10.77;;;5.17;;
7747;SDS011;3918;42.564;23.164;2023-11-19T16:01:07;6.70;;;3.80;;
7747;SDS011;3918;42.564;23.164;2023-11-19T16:03:34;3.90;;;2.30;;
7747;SDS011;3918;42.564;23.164;2023-11-19T16:06:01;11.20;;;3.37;;
7747;SDS011;3918;42.564;23.164;2023-11-19T16:08:29;2.93;;;2.60;;
7747;SDS011;3918;42.564;23.164;2023-11-19T16:10:55;7.30;;;2.60;;
7747;SDS011;3918;42.564;23.164;2023-11-19T16:13:24;4.07;;;2.37;;
7747;SDS011;3918;42.564;23.164;2023-11-19T16:15:51;2.60;;;2.10;;
7747;SDS011;3918;42.564;23.164;2023-11-19T16:18:18;1.53;;;1.50;;
7747;SDS011;3918;42.564;23.164;2023-11-19T16:20:45;2.30;;;1.37;;
7747;SDS011;3918;42.564;23.164;2023-11-19T16:23:12;1.60;;;1.47;;
7747;SDS011;3918;42.564;23.164;2023-11-19T16:25:41;5.90;;;2.10;;
7747;SDS011;3918;42.564;23.164;2023-11-19T16:28:07;5.70;;;3.37;;
7747;SDS011;3918;42.564;23.164;2023-11-19T16:30:36;4.73;;;3.20;;
7747;SDS011;3918;42.564;23.164;2023-11-19T16:33:03;2.78;;;2.58;;
7747;SDS011;3918;42.564;23.164;2023-11-19T16:35:30;5.37;;;3.60;;
7747;SDS011;3918;42.564;23.164;2023-11-19T16:37:57;12.27;;;6.05;;
7747;SDS011;3918;42.564;23.164;2023-11-19T16:40:24;9.77;;;5.57;;
7747;SDS011;3918;42.564;23.164;2023-11-19T16:42:51;5.63;;;4.43;;
7747;SDS011;3918;42.564;23.164;2023-11-19T16:45:18;5.13;;;2.92;;
7747;SDS011;3918;42.564;23.164;2023-11-19T16:47:46;3.38;;;2.95;;
7747;SDS011;3918;42.564;23.164;2023-11-19T16:50:13;3.88;;;2.63;;
7747;SDS011;3918;42.564;23.164;2023-11-19T16:52:41;2.40;;;2.20;;
7747;SDS011;3918;42.564;23.164;2023-11-19T16:55:08;3.42;;;2.25;;
7747;SDS011;3918;42.564;23.164;2023-11-19T16:57:38;2.38;;;2.17;;
7747;SDS011;3918;42.564;23.164;2023-11-19T17:00:06;3.50;;;2.20;;
7747;SDS011;3918;42.564;23.164;2023-11-19T17:02:36;6.67;;;3.47;;
7747;SDS011;3918;42.564;23.164;2023-11-19T17:05:05;7.65;;;4.25;;
7747;SDS011;3918;42.564;23.164;2023-11-19T17:07:33;5.17;;;3.63;;
7747;SDS011;3918;42.564;23.164;2023-11-19T17:09:59;3.70;;;3.30;;
7747;SDS011;3918;42.564;23.164;2023-11-19T17:12:27;2.43;;;2.23;;
7747;SDS011;3918;42.564;23.164;2023-11-19T17:14:54;2.03;;;1.92;;
7747;SDS011;3918;42.564;23.164;2023-11-19T17:17:30;2.45;;;2.10;;
7747;SDS011;3918;42.564;23.164;2023-11-19T17:19:59;5.18;;;4.10;;
7747;SDS011;3918;42.564;23.164;2023-11-19T17:22:30;7.20;;;5.43;;
7747;SDS011;3918;42.564;23.164;2023-11-19T17:24:59;4.07;;;3.03;;
7747;SDS011;3918;42.564;23.164;2023-11-19T17:27:27;4.20;;;2.90;;
7747;SDS011;3918;42.564;23.164;2023-11-19T17:29:54;6.65;;;4.53;;
7747;SDS011;3918;42.564;23.164;2023-11-19T17:32:21;5.60;;;2.15;;
7747;SDS011;3918;42.564;23.164;2023-11-19T17:34:48;3.30;;;2.57;;
7747;SDS011;3918;42.564;23.164;2023-11-19T17:37:15;2.78;;;2.15;;
7747;SDS011;3918;42.564;23.164;2023-11-19T17:39:45;4.20;;;1.90;;
7747;SDS011;3918;42.564;23.164;2023-11-19T17:42:12;2.00;;;1.75;;
7747;SDS011;3918;42.564;23.164;2023-11-19T17:44:38;2.28;;;2.08;;
7747;SDS011;3918;42.564;23.164;2023-11-19T17:47:06;3.72;;;2.25;;
7747;SDS011;3918;42.564;23.164;2023-11-19T17:49:33;2.17;;;1.83;;
7747;SDS011;3918;42.564;23.164;2023-11-19T17:52:00;2.08;;;1.90;;
7747;SDS011;3918;42.564;23.164;2023-11-19T17:54:27;2.15;;;2.05;;
7747;SDS011;3918;42.564;23.164;2023-11-19T17:56:56;5.07;;;3.40;;
7747;SDS011;3918;42.564;23.164;2023-11-19T17:59:23;3.15;;;2.83;;
7747;SDS011;3918;42.564;23.164;2023-11-19T18:01:50;5.38;;;3.60;;
7747;SDS011;3918;42.564;23.164;2023-11-19T18:04:21;6.90;;;4.43;;
7747;SDS011;3918;42.564;23.164;2023-11-19T18:06:50;6.13;;;3.95;;
7747;SDS011;3918;42.564;23.164;2023-11-19T18:09:17;3.20;;;2.78;;
7747;SDS011;3918;42.564;23.164;2023-11-19T18:11:44;3.65;;;2.78;;
7747;SDS011;3918;42.564;23.164;2023-11-19T18:14:13;3.72;;;3.05;;
7747;SDS011;3918;42.564;23.164;2023-11-19T18:16:42;4.60;;;3.30;;
7747;SDS011;3918;42.564;23.164;2023-11-19T18:19:09;4.88;;;3.70;;
7747;SDS011;3918;42.564;23.164;2023-11-19T18:21:36;6.15;;;3.53;;
7747;SDS011;3918;42.564;23.164;2023-11-19T18:24:04;4.53;;;4.03;;
7747;SDS011;3918;42.564;23.164;2023-11-19T18:26:31;4.65;;;3.25;;
7747;SDS011;3918;42.564;23.164;2023-11-19T18:28:58;4.25;;;3.17;;
7747;SDS011;3918;42.564;23.164;2023-11-19T18:31:26;5.03;;;3.22;;
7747;SDS011;3918;42.564;23.164;2023-11-19T18:33:53;6.63;;;2.78;;
7747;SDS011;3918;42.564;23.164;2023-11-19T18:36:20;5.05;;;3.17;;
7747;SDS011;3918;42.564;23.164;2023-11-19T18:38:47;3.47;;;3.17;;
7747;SDS011;3918;42.564;23.164;2023-11-19T18:41:14;3.15;;;2.83;;
7747;SDS011;3918;42.564;23.164;2023-11-19T18:43:40;4.20;;;3.80;;
7747;SDS011;3918;42.564;23.164;2023-11-19T18:46:07;6.80;;;4.70;;
7747;SDS011;3918;42.564;23.164;2023-11-19T18:48:35;3.60;;;3.30;;
7747;SDS011;3918;42.564;23.164;2023-11-19T18:51:02;4.20;;;3.45;;
7747;SDS011;3918;42.564;23.164;2023-11-19T18:53:29;14.15;;;7.32;;
7747;SDS011;3918;42.564;23.164;2023-11-19T18:55:57;13.02;;;7.40;;
7747;SDS011;3918;42.564;23.164;2023-11-19T18:58:24;11.35;;;7.43;;
7747;SDS011;3918;42.564;23.164;2023-11-19T19:00:51;13.82;;;7.57;;
7747;SDS011;3918;42.564;23.164;2023-11-19T19:03:19;8.25;;;5.22;;
7747;SDS011;3918;42.564;23.164;2023-11-19T19:05:49;5.00;;;4.07;;
7747;SDS011;3918;42.564;23.164;2023-11-19T19:08:15;4.65;;;3.90;;
7747;SDS011;3918;42.564;23.164;2023-11-19T19:10:43;1.60;;;1.50;;
7747;SDS011;3918;42.564;23.164;2023-11-19T19:13:10;1.30;;;1.30;;
7747;SDS011;3918;42.564;23.164;2023-11-19T19:15:37;1.48;;;1.38;;
7747;SDS011;3918;42.564;23.164;2023-11-19T19:18:06;2.00;;;1.90;;
7747;SDS011;3918;42.564;23.164;2023-11-19T19:20:33;2.45;;;2.25;;
7747;SDS011;3918;42.564;23.164;2023-11-19T19:23:01;12.60;;;7.30;;
7747;SDS011;3918;42.564;23.164;2023-11-19T19:25:28;14.50;;;7.63;;
7747;SDS011;3918;42.564;23.164;2023-11-19T19:27:55;12.20;;;7.13;;
7747;SDS011;3918;42.564;23.164;2023-11-19T19:30:22;5.95;;;4.00;;
7747;SDS011;3918;42.564;23.164;2023-11-19T19:32:49;4.13;;;3.38;;
7747;SDS011;3918;42.564;23.164;2023-11-19T19:35:17;1.52;;;1.42;;
7747;SDS011;3918;42.564;23.164;2023-11-19T19:37:44;1.45;;;1.40;;
7747;SDS011;3918;42.564;23.164;2023-11-19T19:40:13;1.63;;;1.52;;
7747;SDS011;3918;42.564;23.164;2023-11-19T19:42:40;1.92;;;1.83;;
7747;SDS011;3918;42.564;23.164;2023-11-19T19:45:07;2.35;;;2.15;;
7747;SDS011;3918;42.564;23.164;2023-11-19T19:47:35;4.80;;;2.20;;
7747;SDS011;3918;42.564;23.164;2023-11-19T19:50:04;4.30;;;2.35;;
7747;SDS011;3918;42.564;23.164;2023-11-19T19:52:35;3.47;;;2.63;;
7747;SDS011;3918;42.564;23.164;2023-11-19T19:55:02;3.47;;;2.63;;
7747;SDS011;3918;42.564;23.164;2023-11-19T19:57:32;1.52;;;1.42;;
7747;SDS011;3918;42.564;23.164;2023-11-19T19:59:59;1.20;;;1.20;;
